Time;durP1;ratioP1;P1;durP2;ratioP2;P2;SDS_P1;SDS_P2;PMS_P1;PMS_P2;Temp;Humidity;BMP_temperature;BMP_pressure;BME280_temperature;BME280_humidity;BME280_pressure;Samples;Min_cycle;Max_cycle;Signal;HPM_P1;HPM_P2
2023/04/01 00:00:57;;;;;;;3.20;1.58;;;8.90;99.90;;;;;;5053592;28;20025;-54
2023/04/01 00:03:25;;;;;;;4.25;1.90;;;8.90;99.90;;;;;;5053641;28;20025;-54
2023/04/01 00:05:51;;;;;;;1.48;1.38;;;8.90;99.90;;;;;;5053680;28;20013;-55
2023/04/01 00:08:17;;;;;;;2.67;1.65;;;8.90;99.90;;;;;;5054052;28;20021;-50
2023/04/01 00:10:42;;;;;;;2.30;1.90;;;9.00;99.90;;;;;;5053722;28;20138;-54
2023/04/01 00:13:08;;;;;;;2.00;1.67;;;8.90;99.90;;;;;;5053154;28;20052;-50
2023/04/01 00:15:35;;;;;;;5.18;1.80;;;9.00;99.90;;;;;;5053837;28;20496;-53
2023/04/01 00:18:00;;;;;;;4.78;2.15;;;9.00;99.90;;;;;;5051993;28;20059;-51
2023/04/01 00:20:27;;;;;;;4.47;1.50;;;9.00;99.90;;;;;;5053780;28;20033;-48
2023/04/01 00:22:52;;;;;;;6.13;1.98;;;9.00;99.90;;;;;;5053059;28;20387;-51
2023/04/01 00:25:18;;;;;;;3.97;1.50;;;9.00;99.90;;;;;;5053242;28;20029;-51
2023/04/01 00:27:44;;;;;;;5.72;1.60;;;8.90;99.90;;;;;;5053567;28;20337;-52
2023/04/01 00:30:10;;;;;;;4.60;1.60;;;8.80;99.90;;;;;;5053368;28;20111;-56
2023/04/01 00:32:36;;;;;;;3.92;1.50;;;8.80;99.90;;;;;;5053346;28;20025;-53
2023/04/01 00:35:03;;;;;;;2.65;1.50;;;8.80;99.90;;;;;;5053184;28;20040;-55
2023/04/01 00:37:29;;;;;;;3.17;1.60;;;8.80;99.90;;;;;;5053167;28;20021;-54
2023/04/01 00:39:55;;;;;;;4.05;1.50;;;8.90;99.90;;;;;;5053145;28;20044;-53
2023/04/01 00:42:21;;;;;;;3.35;1.67;;;8.80;99.90;;;;;;5052981;28;20032;-54
2023/04/01 00:44:54;;;;;;;4.55;1.73;;;8.80;99.90;;;;;;5053025;28;20498;-52
2023/04/01 00:47:22;;;;;;;5.15;1.77;;;8.80;99.90;;;;;;5053180;28;20075;-55
2023/04/01 00:49:51;;;;;;;2.97;1.58;;;8.70;99.90;;;;;;5052805;28;20032;-53
2023/04/01 00:52:25;;;;;;;3.08;1.38;;;8.80;99.90;;;;;;5052906;28;20487;-55
2023/04/01 00:54:56;;;;;;;5.63;1.85;;;8.80;99.90;;;;;;5052741;28;20028;-52
2023/04/01 00:57:29;;;;;;;2.35;1.55;;;8.80;99.90;;;;;;5052860;28;20104;-51
2023/04/01 00:59:55;;;;;;;3.90;2.70;;;8.90;99.90;;;;;;5052568;28;20071;-50
2023/04/01 01:02:22;;;;;;;5.90;1.98;;;8.80;99.90;;;;;;5052711;28;20036;-57
2023/04/01 01:04:47;;;;;;;2.00;1.40;;;8.80;99.90;;;;;;5052624;28;20024;-54
2023/04/01 01:07:44;;;;;;;4.13;1.85;;;8.80;99.90;;;;;;5051220;28;20107;-55
2023/04/01 01:10:23;;;;;;;7.95;1.90;;;8.80;99.90;;;;;;5051197;28;20117;-56
2023/04/01 01:13:14;;;;;;;2.92;1.83;;;8.80;99.90;;;;;;5052176;28;20048;-52
2023/04/01 01:15:55;;;;;;;2.40;1.73;;;8.70;99.90;;;;;;5052543;28;20040;-52
2023/04/01 01:18:40;;;;;;;1.83;1.58;;;8.70;99.90;;;;;;5052377;28;20502;-52
2023/04/01 01:21:32;;;;;;;4.65;1.70;;;8.70;99.90;;;;;;5052151;28;20029;-54
2023/04/01 01:24:28;;;;;;;5.40;1.63;;;8.70;99.90;;;;;;5052201;28;20028;-53
2023/04/01 01:27:04;;;;;;;2.10;1.40;;;8.70;99.90;;;;;;5052234;28;20017;-51
2023/04/01 01:29:42;;;;;;;1.58;1.38;;;8.70;99.90;;;;;;5052239;28;20078;-55
2023/04/01 01:32:31;;;;;;;3.40;1.42;;;8.60;99.90;;;;;;5051800;28;20025;-53
2023/04/01 01:35:33;;;;;;;1.90;1.30;;;8.70;99.90;;;;;;5051260;28;20041;-55
2023/04/01 01:38:03;;;;;;;2.05;1.55;;;8.70;99.90;;;;;;5052167;28;20514;-53
2023/04/01 01:40:31;;;;;;;3.28;1.42;;;8.70;99.90;;;;;;5051860;28;20079;-51
2023/04/01 01:43:03;;;;;;;1.52;1.13;;;8.60;99.90;;;;;;5051745;28;20401;-51
2023/04/01 01:45:31;;;;;;;4.60;1.50;;;8.60;99.90;;;;;;5052065;28;20021;-51
2023/04/01 01:47:59;;;;;;;3.47;1.35;;;8.60;99.90;;;;;;5051680;28;20021;-54
2023/04/01 01:50:26;;;;;;;2.67;1.45;;;8.50;99.90;;;;;;5051818;28;20387;-49
2023/04/01 01:53:10;;;;;;;2.10;1.50;;;8.50;99.90;;;;;;5051585;28;20435;-49
2023/04/01 01:55:37;;;;;;;;;;;8.50;99.90;;;;;;5052306;28;20357;-54
2023/04/01 01:58:12;;;;;;;2.47;1.20;;;8.40;99.90;;;;;;5051574;28;19905;-56
2023/04/01 02:00:38;;;;;;;2.33;1.40;;;8.40;99.90;;;;;;5051794;28;20397;-53
2023/04/01 02:03:05;;;;;;;2.88;1.33;;;8.40;99.90;;;;;;5051494;28;20021;-56
2023/04/01 02:05:32;;;;;;;2.35;1.40;;;8.30;99.90;;;;;;5051613;28;20036;-50
2023/04/01 02:08:10;;;;;;;2.05;1.38;;;8.30;99.90;;;;;;5051467;28;20527;-53
2023/04/01 02:10:39;;;;;;;2.58;1.50;;;8.30;99.90;;;;;;5051419;28;20060;-55
2023/04/01 02:13:13;;;;;;;2.15;1.42;;;8.20;99.90;;;;;;5051366;28;20060;-55
2023/04/01 02:15:44;;;;;;;1.30;1.20;;;8.20;99.90;;;;;;5050295;28;20029;-53
2023/04/01 02:18:13;;;;;;;1.88;1.30;;;8.10;99.90;;;;;;5051550;28;20514;-53
2023/04/01 02:20:40;;;;;;;6.13;1.52;;;8.10;99.90;;;;;;5050302;28;20033;-52
2023/04/01 02:23:07;;;;;;;1.60;1.45;;;8.10;99.90;;;;;;5051110;28;20025;-55
2023/04/01 02:25:36;;;;;;;4.55;1.50;;;8.10;99.90;;;;;;5051452;28;20028;-52
2023/04/01 02:28:05;;;;;;;4.28;1.40;;;8.00;99.90;;;;;;5051255;28;20021;-52
2023/04/01 02:30:34;;;;;;;3.42;1.55;;;7.90;99.90;;;;;;5051315;28;20139;-52
2023/04/01 02:33:01;;;;;;;2.95;1.58;;;7.90;99.90;;;;;;5051270;28;20025;-54
2023/04/01 02:35:27;;;;;;;5.03;3.00;;;7.90;99.90;;;;;;5051312;28;20465;-49
2023/04/01 02:37:54;;;;;;;3.15;1.67;;;7.90;99.90;;;;;;5051228;28;20052;-58
2023/04/01 02:40:20;;;;;;;1.63;1.48;;;7.80;99.90;;;;;;5049805;28;20025;-53
2023/04/01 02:42:46;;;;;;;3.63;1.60;;;7.80;99.90;;;;;;5051171;28;20075;-56
2023/04/01 02:45:12;;;;;;;3.58;1.70;;;7.80;99.90;;;;;;5053547;28;20435;-52
2023/04/01 02:47:38;;;;;;;2.20;1.40;;;7.70;99.90;;;;;;5055447;28;20025;-54
2023/04/01 02:50:05;;;;;;;4.72;2.00;;;7.70;99.90;;;;;;5055219;28;20115;-53
2023/04/01 02:52:31;;;;;;;2.33;1.50;;;7.70;99.90;;;;;;5055190;28;20029;-52
2023/04/01 02:54:57;;;;;;;3.63;1.80;;;7.70;99.90;;;;;;5054952;28;20044;-50
2023/04/01 02:57:23;;;;;;;2.28;1.55;;;7.70;99.90;;;;;;5055121;28;20035;-54
2023/04/01 02:59:49;;;;;;;1.48;1.40;;;7.70;99.90;;;;;;5055176;28;20412;-52
2023/04/01 03:02:16;;;;;;;1.48;1.38;;;7.70;99.90;;;;;;5054955;28;20049;-52
2023/04/01 03:04:42;;;;;;;3.22;1.77;;;7.70;99.90;;;;;;5054957;28;20032;-55
2023/04/01 03:07:09;;;;;;;3.80;1.55;;;7.60;99.90;;;;;;5054732;28;20052;-54
2023/04/01 03:09:36;;;;;;;2.80;1.40;;;7.60;99.90;;;;;;5053595;28;20025;-56
2023/04/01 03:12:02;;;;;;;1.88;1.65;;;7.60;99.90;;;;;;5054417;28;20400;-55
2023/04/01 03:14:27;;;;;;;1.50;1.40;;;7.60;99.90;;;;;;5054880;28;20033;-56
2023/04/01 03:16:53;;;;;;;3.45;1.48;;;7.60;99.90;;;;;;5054608;28;20033;-55
2023/04/01 03:19:19;;;;;;;3.03;1.70;;;7.50;99.90;;;;;;5054642;28;20024;-51
2023/04/01 03:21:44;;;;;;;2.60;1.63;;;7.50;99.90;;;;;;5054524;28;20028;-52
2023/04/01 03:24:10;;;;;;;6.63;1.52;;;7.50;99.90;;;;;;5054518;28;20449;-54
2023/04/01 03:26:36;;;;;;;3.63;1.60;;;7.40;99.90;;;;;;5054440;28;20118;-54
2023/04/01 03:29:01;;;;;;;1.92;1.17;;;7.40;99.90;;;;;;5054503;28;20025;-56
2023/04/01 03:31:27;;;;;;;2.88;1.55;;;7.40;99.90;;;;;;5054502;28;20017;-57
2023/04/01 03:33:53;;;;;;;4.07;1.60;;;7.40;99.90;;;;;;5054268;28;20035;-54
2023/04/01 03:36:18;;;;;;;5.80;1.90;;;7.40;99.90;;;;;;5054426;28;20364;-56
2023/04/01 03:38:45;;;;;;;3.13;1.70;;;7.40;99.90;;;;;;5054342;28;20029;-49
2023/04/01 03:41:15;;;;;;;3.13;2.15;;;7.40;99.90;;;;;;5054023;28;20024;-54
2023/04/01 03:43:41;;;;;;;5.13;1.80;;;7.30;99.90;;;;;;5054246;28;20029;-53
2023/04/01 03:46:07;;;;;;;4.05;1.73;;;7.30;99.90;;;;;;5054048;28;20036;-56
2023/04/01 03:48:32;;;;;;;4.70;1.70;;;7.30;99.90;;;;;;5054069;28;20021;-55
2023/04/01 03:50:58;;;;;;;4.20;2.17;;;7.30;99.90;;;;;;5053853;28;20037;-53
2023/04/01 03:53:24;;;;;;;2.97;1.52;;;7.30;99.90;;;;;;5054113;28;20098;-54
2023/04/01 03:55:51;;;;;;;2.75;1.65;;;7.30;99.90;;;;;;5053068;28;20021;-54
2023/04/01 03:58:17;;;;;;;2.65;1.90;;;7.30;99.90;;;;;;5053969;28;20430;-53
2023/04/01 04:00:43;;;;;;;2.28;1.42;;;7.30;99.90;;;;;;5054044;28;20031;-53
2023/04/01 04:03:08;;;;;;;2.78;1.95;;;7.30;99.90;;;;;;5053561;28;20040;-52
2023/04/01 04:05:34;;;;;;;7.40;1.67;;;7.30;99.90;;;;;;5053880;28;20028;-57
2023/04/01 04:07:59;;;;;;;5.22;1.65;;;7.20;99.90;;;;;;5053562;28;20022;-54
2023/04/01 04:10:25;;;;;;;5.05;1.80;;;7.20;99.90;;;;;;5053770;28;20025;-53
2023/04/01 04:12:51;;;;;;;4.43;3.20;;;7.20;99.90;;;;;;5053502;28;20139;-51
2023/04/01 04:15:17;;;;;;;2.63;1.70;;;7.20;99.90;;;;;;5053644;28;20048;-54
2023/04/01 04:17:45;;;;;;;4.80;1.92;;;7.20;99.90;;;;;;5053250;28;20060;-55
2023/04/01 04:20:11;;;;;;;3.03;1.70;;;7.10;99.90;;;;;;5052945;28;20032;-52
2023/04/01 04:22:36;;;;;;;3.75;1.70;;;7.20;99.90;;;;;;5052659;28;20377;-56
2023/04/01 04:25:02;;;;;;;10.70;3.65;;;7.10;99.90;;;;;;5052783;28;20036;-57
2023/04/01 04:27:28;;;;;;;5.50;2.08;;;7.10;99.90;;;;;;5053126;28;20024;-52
2023/04/01 04:29:53;;;;;;;2.72;2.40;;;7.20;99.90;;;;;;5052829;28;20017;-50
2023/04/01 04:32:19;;;;;;;2.72;2.00;;;7.20;99.90;;;;;;5052292;28;20043;-48
2023/04/01 04:34:45;;;;;;;2.00;1.85;;;7.30;99.90;;;;;;5052179;28;20017;-50
2023/04/01 04:37:11;;;;;;;2.97;2.65;;;7.20;99.90;;;;;;5051140;28;20032;-55
2023/04/01 04:39:36;;;;;;;2.85;1.50;;;7.30;99.90;;;;;;5053015;28;20341;-51
2023/04/01 04:42:02;;;;;;;1.80;1.67;;;7.30;99.90;;;;;;5053028;28;20107;-52
2023/04/01 04:44:28;;;;;;;3.13;1.60;;;7.30;99.90;;;;;;5053126;28;20504;-51
2023/04/01 04:46:53;;;;;;;2.47;1.50;;;7.30;99.90;;;;;;5052841;28;20025;-50
2023/04/01 04:49:19;;;;;;;6.15;1.65;;;7.30;99.90;;;;;;5051580;28;20025;-53
2023/04/01 04:51:45;;;;;;;2.15;1.48;;;7.20;99.90;;;;;;5053000;28;20024;-51
2023/04/01 04:54:11;;;;;;;2.60;1.73;;;7.20;99.90;;;;;;5052547;28;20025;-51
2023/04/01 04:56:36;;;;;;;3.67;1.58;;;7.30;99.90;;;;;;5052834;28;20095;-54
2023/04/01 04:59:02;;;;;;;2.35;1.77;;;7.30;99.90;;;;;;5052433;28;20025;-51
2023/04/01 05:01:28;;;;;;;1.92;1.60;;;7.20;99.90;;;;;;5052878;28;20055;-54
2023/04/01 05:03:54;;;;;;;2.85;1.65;;;7.30;99.90;;;;;;5051089;28;20415;-51
2023/04/01 05:06:20;;;;;;;2.53;1.70;;;7.20;99.90;;;;;;5052639;28;20027;-51
2023/04/01 05:08:46;;;;;;;4.22;1.80;;;7.10;99.90;;;;;;5052577;28;20112;-49
2023/04/01 05:11:15;;;;;;;2.75;2.00;;;7.20;99.90;;;;;;5052380;28;20451;-51
2023/04/01 05:13:41;;;;;;;4.47;2.20;;;7.20;99.90;;;;;;5051312;28;20624;-51
2023/04/01 05:16:15;;;;;;;2.50;2.30;;;7.30;99.90;;;;;;5052238;28;20111;-53
2023/04/01 05:18:41;;;;;;;1.88;1.73;;;7.30;99.90;;;;;;5052482;28;20112;-56
2023/04/01 05:21:08;;;;;;;2.20;2.00;;;7.20;99.90;;;;;;5052186;28;20029;-54
2023/04/01 05:23:34;;;;;;;5.20;2.80;;;7.20;99.90;;;;;;5052202;28;20028;-52
2023/04/01 05:26:08;;;;;;;4.53;2.92;;;7.30;99.90;;;;;;5050900;28;20391;-49
2023/04/01 05:28:34;;;;;;;6.53;2.67;;;7.30;99.90;;;;;;5052330;28;20518;-52
2023/04/01 05:31:01;;;;;;;6.00;2.50;;;7.40;99.90;;;;;;5050733;28;20025;-49
2023/04/01 05:33:27;;;;;;;3.35;1.90;;;7.40;99.90;;;;;;5052039;28;20032;-52
2023/04/01 05:35:54;;;;;;;2.53;1.42;;;7.50;99.90;;;;;;5051949;28;20029;-57
2023/04/01 05:38:19;;;;;;;1.70;1.55;;;7.50;99.90;;;;;;5051960;28;20024;-50
2023/04/01 05:40:45;;;;;;;4.93;1.63;;;7.50;99.90;;;;;;5049628;28;20029;-49
2023/04/01 05:43:11;;;;;;;1.88;1.65;;;7.60;99.90;;;;;;5050836;28;20117;-56
2023/04/01 05:45:37;;;;;;;2.42;1.52;;;7.60;99.90;;;;;;5050902;28;20075;-51
2023/04/01 05:48:03;;;;;;;2.92;1.83;;;7.60;99.90;;;;;;5050522;28;20095;-50
2023/04/01 05:50:28;;;;;;;1.50;1.40;;;7.70;99.90;;;;;;5050721;28;20103;-52
2023/04/01 05:52:54;;;;;;;2.10;1.70;;;7.70;99.90;;;;;;5050574;28;20025;-50
2023/04/01 05:55:20;;;;;;;2.45;1.58;;;7.70;99.90;;;;;;5050598;28;20021;-51
2023/04/01 05:57:48;;;;;;;2.30;1.60;;;7.80;99.90;;;;;;5050463;28;20036;-54
2023/04/01 06:00:14;;;;;;;3.88;1.73;;;7.90;99.90;;;;;;5050561;28;20044;-57
2023/04/01 06:02:41;;;;;;;2.00;1.80;;;7.90;99.90;;;;;;5050471;28;20025;-54
2023/04/01 06:05:16;;;;;;;4.47;1.75;;;8.00;99.90;;;;;;5049090;28;20502;-53
2023/04/01 06:07:42;;;;;;;1.95;1.80;;;8.00;99.90;;;;;;5050559;28;20025;-52
2023/04/01 06:10:16;;;;;;;1.65;1.55;;;8.10;99.90;;;;;;5050409;28;20480;-50
2023/04/01 06:13:09;;;;;;;3.08;1.80;;;8.00;99.90;;;;;;5050367;28;20399;-57
2023/04/01 06:15:53;;;;;;;1.83;1.70;;;8.20;99.90;;;;;;5049040;28;20027;-52
2023/04/01 06:18:39;;;;;;;1.83;1.60;;;8.40;99.90;;;;;;5050455;28;20119;-53
2023/04/01 06:21:24;;;;;;;4.43;1.80;;;8.30;99.90;;;;;;5049991;28;20511;-53
2023/04/01 06:24:12;;;;;;;1.70;1.52;;;8.50;99.90;;;;;;5049958;28;20128;-54
2023/04/01 06:26:54;;;;;;;3.72;1.75;;;8.50;99.90;;;;;;5050141;28;20018;-54
2023/04/01 06:29:26;;;;;;;1.70;1.40;;;8.60;99.90;;;;;;5046954;28;20381;-51
2023/04/01 06:31:54;;;;;;;1.50;1.40;;;8.50;99.90;;;;;;5050052;28;20074;-53
2023/04/01 06:34:53;;;;;;;1.40;1.30;;;8.50;99.90;;;;;;5050209;28;20036;-53
2023/04/01 06:37:36;;;;;;;1.75;1.35;;;8.60;99.90;;;;;;5050135;28;20021;-53
2023/04/01 06:40:21;;;;;;;1.38;1.25;;;8.60;99.90;;;;;;5049928;28;20096;-51
2023/04/01 06:43:01;;;;;;;2.13;1.70;;;8.60;99.90;;;;;;5050323;28;20021;-53
2023/04/01 06:45:47;;;;;;;1.42;1.33;;;8.50;99.90;;;;;;5049950;28;20108;-55
2023/04/01 06:48:44;;;;;;;7.00;1.58;;;8.60;99.90;;;;;;5050015;28;20033;-55
2023/04/01 06:51:35;;;;;;;4.25;1.58;;;8.70;99.90;;;;;;5049752;28;20483;-56
2023/04/01 06:54:13;;;;;;;1.38;1.27;;;8.70;99.90;;;;;;5049785;28;20021;-52
2023/04/01 06:56:42;;;;;;;1.92;1.73;;;8.70;99.90;;;;;;5049992;28;20029;-53
2023/04/01 06:59:21;;;;;;;1.58;1.48;;;8.70;99.90;;;;;;5049909;28;20024;-55
2023/04/01 07:01:47;;;;;;;3.28;1.23;;;8.60;99.90;;;;;;5049529;28;20021;-54
2023/04/01 07:04:31;;;;;;;2.33;2.10;;;8.70;99.90;;;;;;5050796;28;20071;-57
2023/04/01 07:07:01;;;;;;;1.30;1.27;;;8.80;99.90;;;;;;5050974;28;20009;-51
2023/04/01 07:09:40;;;;;;;1.40;1.27;;;8.90;99.90;;;;;;5051055;28;20403;-54
2023/04/01 07:12:35;;;;;;;3.05;1.50;;;9.00;99.90;;;;;;5050494;28;20044;-54
2023/04/01 07:15:19;;;;;;;5.97;1.85;;;9.00;99.90;;;;;;5050595;28;20029;-56
2023/04/01 07:17:48;;;;;;;1.63;1.52;;;9.00;99.90;;;;;;5050862;28;20029;-56
2023/04/01 07:20:26;;;;;;;4.85;1.23;;;9.00;99.90;;;;;;5051015;28;20025;-55
2023/04/01 07:23:05;;;;;;;2.05;1.40;;;8.90;99.90;;;;;;5050535;28;20460;-54
2023/04/01 07:25:37;;;;;;;3.63;1.92;;;9.10;99.90;;;;;;5050519;28;20029;-52
2023/04/01 07:28:16;;;;;;;4.60;1.30;;;9.20;99.90;;;;;;5050257;28;20350;-57
2023/04/01 07:30:47;;;;;;;1.83;1.10;;;9.30;99.90;;;;;;5050409;28;20021;-54
2023/04/01 07:33:28;;;;;;;3.03;1.63;;;9.30;99.90;;;;;;5053786;28;20079;-54
2023/04/01 07:36:36;;;;;;;1.27;1.23;;;9.50;99.90;;;;;;5053910;28;20029;-54
2023/04/01 07:39:09;;;;;;;1.77;1.20;;;9.80;99.90;;;;;;5053141;28;20036;-52
2023/04/01 07:41:50;;;;;;;1.13;1.05;;;9.80;99.90;;;;;;5054377;28;20107;-54
2023/04/01 07:44:18;;;;;;;1.00;1.00;;;9.90;99.90;;;;;;5053964;28;20380;-55
2023/04/01 07:47:07;;;;;;;6.95;1.25;;;10.10;99.90;;;;;;5054027;28;20100;-53
2023/04/01 07:49:54;;;;;;;1.55;1.25;;;10.00;99.90;;;;;;5054213;28;20025;-55
2023/04/01 07:52:22;;;;;;;1.92;1.30;;;10.00;99.90;;;;;;5053487;28;20047;-54
2023/04/01 07:55:17;;;;;;;2.72;1.40;;;10.10;99.90;;;;;;5053193;28;20104;-55
2023/04/01 07:57:52;;;;;;;1.92;1.50;;;10.20;99.90;;;;;;5053453;28;20024;-54
2023/04/01 08:00:44;;;;;;;1.63;1.40;;;9.90;99.90;;;;;;5054275;28;20547;-51
2023/04/01 08:03:20;;;;;;;2.25;1.20;;;10.10;99.90;;;;;;5053711;28;20024;-53
2023/04/01 08:05:51;;;;;;;2.65;1.35;;;10.20;99.90;;;;;;5053616;28;20017;-56
2023/04/01 08:08:29;;;;;;;3.17;1.40;;;10.10;99.90;;;;;;5053459;28;20417;-55
2023/04/01 08:11:33;;;;;;;1.52;1.17;;;10.30;99.90;;;;;;5053346;28;20029;-52
2023/04/01 08:14:12;;;;;;;2.05;1.10;;;10.30;99.90;;;;;;5050478;28;20080;-55
2023/04/01 08:17:04;;;;;;;2.95;1.67;;;10.50;99.90;;;;;;5050481;28;20098;-51
2023/04/01 08:19:57;;;;;;;1.70;1.20;;;10.40;99.90;;;;;;5052067;28;20041;-52
2023/04/01 08:22:42;;;;;;;3.60;1.10;;;10.50;99.90;;;;;;5052618;28;20070;-57
2023/04/01 08:25:16;;;;;;;1.10;1.00;;;10.50;99.90;;;;;;5053076;28;20103;-54
2023/04/01 08:27:50;;;;;;;3.42;1.30;;;10.80;99.70;;;;;;5053472;28;20036;-52
2023/04/01 08:30:24;;;;;;;1.00;1.00;;;10.70;99.90;;;;;;5053442;28;20048;-55
2023/04/01 08:33:25;;;;;;;3.47;1.50;;;10.70;99.90;;;;;;5051961;28;20029;-52
2023/04/01 08:36:10;;;;;;;1.52;1.42;;;11.00;99.90;;;;;;5052645;28;20103;-54
2023/04/01 08:38:47;;;;;;;2.67;1.40;;;10.80;99.90;;;;;;5053451;28;20515;-56
2023/04/01 08:41:55;;;;;;;2.50;1.25;;;11.00;99.90;;;;;;5052884;28;20116;-52
2023/04/01 08:44:36;;;;;;;3.45;1.58;;;11.00;99.90;;;;;;5051782;28;20037;-56
2023/04/01 08:47:16;;;;;;;5.05;1.80;;;10.90;99.90;;;;;;5052952;28;20481;-57
2023/04/01 08:50:10;;;;;;;2.88;2.03;;;10.80;99.90;;;;;;5053103;28;20377;-55
2023/04/01 08:52:43;;;;;;;3.83;1.70;;;10.70;99.90;;;;;;5051724;28;20376;-57
2023/04/01 08:55:38;;;;;;;2.47;1.50;;;10.70;99.90;;;;;;5051474;28;20020;-57
2023/04/01 08:58:27;;;;;;;1.20;1.10;;;10.60;99.90;;;;;;5052792;28;20032;-54
2023/04/01 09:00:55;;;;;;;3.00;1.48;;;10.80;99.90;;;;;;5052780;28;20115;-56
2023/04/01 09:03:31;;;;;;;1.65;1.33;;;10.70;99.90;;;;;;5052810;28;20063;-54
2023/04/01 09:06:11;;;;;;;2.10;1.45;;;10.80;99.90;;;;;;5052408;28;20028;-54
2023/04/01 09:08:42;;;;;;;1.00;1.00;;;10.90;99.70;;;;;;5052564;28;20029;-56
2023/04/01 09:11:35;;;;;;;9.27;1.55;;;10.90;99.40;;;;;;5052057;28;20021;-55
2023/04/01 09:14:21;;;;;;;1.60;1.30;;;10.90;99.90;;;;;;5052099;28;20032;-54
2023/04/01 09:16:53;;;;;;;1.77;1.35;;;11.10;99.00;;;;;;5052145;28;20472;-56
2023/04/01 09:20:12;;;;;;;6.20;1.63;;;10.90;99.20;;;;;;5052086;28;20029;-57
2023/04/01 09:23:11;;;;;;;3.95;2.05;;;11.00;99.10;;;;;;5049527;28;20412;-54
2023/04/01 09:26:12;;;;;;;3.70;1.38;;;10.90;98.20;;;;;;5052326;28;20018;-55
2023/04/01 09:29:10;;;;;;;3.53;1.10;;;11.30;99.30;;;;;;5050979;28;20025;-58
2023/04/01 09:31:56;;;;;;;7.70;1.42;;;11.40;97.80;;;;;;5050907;28;20033;-54
2023/04/01 09:34:55;;;;;;;5.72;1.25;;;11.60;97.70;;;;;;5051923;28;20021;-55
2023/04/01 09:37:44;;;;;;;8.63;1.38;;;11.70;97.00;;;;;;5051680;28;20438;-54
2023/04/01 09:40:41;;;;;;;0.98;0.98;;;11.80;96.70;;;;;;5051837;28;20021;-53
2023/04/01 09:43:23;;;;;;;3.38;2.08;;;12.00;97.50;;;;;;5051422;28;20021;-56
2023/04/01 09:45:54;;;;;;;2.25;1.02;;;12.20;97.10;;;;;;5049984;28;20542;-55
2023/04/01 09:48:20;;;;;;;1.48;1.00;;;12.50;95.20;;;;;;5052121;28;20056;-58
2023/04/01 09:50:50;;;;;;;1.65;1.10;;;12.50;94.50;;;;;;5051901;28;20565;-57
2023/04/01 09:53:44;;;;;;;4.05;1.40;;;12.70;95.40;;;;;;5051771;28;20078;-56
2023/04/01 09:56:25;;;;;;;4.30;1.08;;;12.50;94.50;;;;;;5051934;28;20392;-58
2023/04/01 09:58:59;;;;;;;1.85;0.90;;;12.60;94.50;;;;;;5051650;28;20028;-58
2023/04/01 10:01:55;;;;;;;2.08;1.05;;;12.90;94.80;;;;;;5051833;28;20348;-53
2023/04/01 10:04:46;;;;;;;5.35;1.13;;;12.30;93.60;;;;;;5051613;28;20032;-54
2023/04/01 10:07:51;;;;;;;3.50;1.52;;;12.30;92.70;;;;;;5051118;28;20025;-58
2023/04/01 10:10:26;;;;;;;0.80;0.80;;;12.10;93.10;;;;;;5050797;28;20029;-59
2023/04/01 10:13:40;;;;;;;1.13;0.80;;;12.30;92.90;;;;;;5051273;28;20120;-54
2023/04/01 10:16:31;;;;;;;0.95;0.90;;;12.60;92.40;;;;;;5051480;28;20692;-58
2023/04/01 10:19:29;;;;;;;2.55;1.40;;;12.50;92.40;;;;;;5051305;28;20538;-56
2023/04/01 10:22:16;;;;;;;3.28;1.27;;;12.60;92.90;;;;;;5051108;28;20508;-52
2023/04/01 10:24:50;;;;;;;0.75;0.75;;;12.70;93.00;;;;;;5051346;28;20411;-55
2023/04/01 10:27:16;;;;;;;6.68;1.30;;;13.10;91.00;;;;;;5051115;28;20021;-55
2023/04/01 10:30:19;;;;;;;1.48;0.88;;;13.10;90.40;;;;;;5049520;28;20071;-53
2023/04/01 10:33:18;;;;;;;2.75;0.80;;;13.20;91.40;;;;;;5033482;28;20069;-58
2023/04/01 10:36:05;;;;;;;0.80;0.80;;;13.10;92.20;;;;;;5020380;28;21721;-57
2023/04/01 10:38:50;;;;;;;12.23;1.15;;;13.00;91.00;;;;;;5020504;28;20030;-57
2023/04/01 10:41:57;;;;;;;0.95;0.93;;;12.90;88.10;;;;;;5020190;28;20045;-56
2023/04/01 10:44:29;;;;;;;1.90;1.05;;;12.70;89.40;;;;;;5020812;28;20159;-56
2023/04/01 10:47:15;;;;;;;10.80;0.90;;;12.70;88.90;;;;;;5020500;28;20091;-55
2023/04/01 10:50:08;;;;;;;5.80;1.05;;;13.40;87.10;;;;;;5019853;28;20034;-54
2023/04/01 10:52:33;;;;;;;10.23;0.93;;;13.50;86.60;;;;;;5020042;28;20021;-58
2023/04/01 10:55:36;;;;;;;5.93;0.88;;;14.00;87.10;;;;;;5020132;28;20084;-58
2023/04/01 10:58:42;;;;;;;9.07;0.88;;;14.10;86.20;;;;;;5020323;28;20083;-57
2023/04/01 11:01:32;;;;;;;5.07;1.10;;;13.80;84.90;;;;;;5019335;28;20033;-54
2023/04/01 11:04:17;;;;;;;2.47;1.30;;;13.70;86.50;;;;;;5020040;28;20041;-56
2023/04/01 11:06:54;;;;;;;1.02;0.77;;;13.60;86.00;;;;;;5023127;28;20029;-57
2023/04/01 11:09:20;;;;;;;2.95;0.70;;;13.70;82.70;;;;;;5023618;28;20026;-58
2023/04/01 11:11:58;;;;;;;3.72;0.82;;;14.30;84.00;;;;;;5022962;28;20103;-54
2023/04/01 11:15:07;;;;;;;2.75;0.88;;;15.20;81.20;;;;;;5023831;28;20463;-58
2023/04/01 11:18:14;;;;;;;0.55;0.55;;;15.30;79.60;;;;;;5023383;28;20060;-58
2023/04/01 11:21:13;;;;;;;3.33;0.60;;;15.60;77.50;;;;;;5030696;28;20452;-58
2023/04/01 11:23:48;;;;;;;0.70;0.70;;;15.20;81.60;;;;;;5038436;28;20380;-56
2023/04/01 11:26:30;;;;;;;0.60;0.60;;;15.50;80.00;;;;;;5032132;28;20025;-56
2023/04/01 11:28:59;;;;;;;0.70;0.65;;;16.60;74.60;;;;;;5043033;28;20029;-56
2023/04/01 11:31:47;;;;;;;0.50;0.50;;;17.00;73.30;;;;;;5025585;28;20026;-55
2023/04/01 11:34:23;;;;;;;0.50;0.50;;;17.20;72.70;;;;;;5022276;28;20350;-56
2023/04/01 11:37:02;;;;;;;0.55;0.50;;;18.00;70.50;;;;;;5022902;28;20033;-54
2023/04/01 11:39:36;;;;;;;1.23;0.50;;;18.40;70.70;;;;;;5022858;28;20455;-55
2023/04/01 11:42:02;;;;;;;0.95;0.77;;;18.20;71.60;;;;;;5022469;28;20422;-57
2023/04/01 11:44:30;;;;;;;3.72;0.98;;;18.00;68.00;;;;;;5023522;28;20036;-57
2023/04/01 11:47:33;;;;;;;0.50;0.50;;;17.70;68.20;;;;;;5023878;28;20100;-56
2023/04/01 11:50:20;;;;;;;2.88;1.00;;;16.60;68.60;;;;;;5022963;28;20029;-55
2023/04/01 11:53:17;;;;;;;0.85;0.77;;;15.20;74.20;;;;;;5023750;28;20037;-57
2023/04/01 11:56:10;;;;;;;0.70;0.70;;;14.80;76.50;;;;;;5023222;28;20029;-52
2023/04/01 11:58:51;;;;;;;0.60;0.60;;;14.80;79.00;;;;;;5023528;28;20040;-54
2023/04/01 12:01:34;;;;;;;2.03;0.80;;;14.60;77.40;;;;;;5021624;28;20045;-58
2023/04/01 12:04:43;;;;;;;1.33;0.90;;;14.30;82.90;;;;;;5022117;28;20492;-58
2023/04/01 12:07:37;;;;;;;1.33;1.23;;;13.90;84.40;;;;;;5022972;28;20022;-56
2023/04/01 12:10:06;;;;;;;;;;;13.30;86.00;;;;;;5023098;28;20021;-55
2023/04/01 12:13:01;;;;;;;1.55;1.45;;;13.20;88.00;;;;;;5022910;28;20015;-56
2023/04/01 12:15:41;;;;;;;2.50;2.30;;;13.90;88.00;;;;;;5023483;28;20037;-56
2023/04/01 12:18:31;;;;;;;2.00;1.27;;;15.60;87.10;;;;;;5041040;28;20029;-57
2023/04/01 12:21:13;;;;;;;6.45;2.47;;;15.90;78.90;;;;;;5042488;28;20108;-55
2023/04/01 12:23:51;;;;;;;1.85;0.80;;;15.40;80.10;;;;;;5041958;28;20048;-55
2023/04/01 12:26:27;;;;;;;1.73;0.77;;;15.00;80.30;;;;;;5022465;28;20030;-58
2023/04/01 12:29:29;;;;;;;4.25;0.75;;;15.70;78.70;;;;;;5021542;28;20033;-58
2023/04/01 12:32:09;;;;;;;1.85;0.80;;;16.00;79.60;;;;;;5021731;28;20026;-57
2023/04/01 12:34:44;;;;;;;1.55;0.77;;;15.60;77.10;;;;;;5024984;28;20490;-57
2023/04/01 12:37:30;;;;;;;1.35;0.63;;;15.70;82.80;;;;;;5021725;28;20415;-58
2023/04/01 12:40:22;;;;;;;1.80;0.70;;;15.90;79.10;;;;;;5022187;28;20029;-58
2023/04/01 12:43:02;;;;;;;4.50;1.10;;;16.10;80.50;;;;;;5028138;28;20038;-58
2023/04/01 12:45:34;;;;;;;1.42;1.33;;;15.20;79.40;;;;;;5022614;28;20029;-55
2023/04/01 12:48:12;;;;;;;2.63;1.73;;;14.80;83.00;;;;;;5032851;28;20018;-57
2023/04/01 12:50:58;;;;;;;2.92;1.98;;;14.20;89.20;;;;;;5032776;28;20457;-57
2023/04/01 12:53:46;;;;;;;3.65;2.58;;;14.10;87.50;;;;;;5032990;28;20029;-58
2023/04/01 12:56:36;;;;;;;2.38;1.10;;;13.50;90.20;;;;;;5032664;28;20018;-57
2023/04/01 12:59:20;;;;;;;1.85;0.70;;;13.80;90.10;;;;;;5032940;28;20120;-57
2023/04/01 13:02:21;;;;;;;1.38;0.80;;;14.40;22.00;;;;;;5032874;28;20063;-53
2023/04/01 13:05:10;;;;;;;0.50;0.50;;;14.70;1.00;;;;;;5032877;28;20036;-55
2023/04/01 13:07:46;;;;;;;0.88;0.70;;;14.20;85.50;;;;;;5031506;28;20045;-53
2023/04/01 13:10:49;;;;;;;3.13;0.70;;;14.10;86.90;;;;;;5032310;28;20140;-53
2023/04/01 13:13:39;;;;;;;0.95;0.95;;;14.40;87.50;;;;;;5031393;28;20107;-57
2023/04/01 13:16:27;;;;;;;0.93;0.93;;;13.80;82.00;;;;;;5031087;28;20155;-56
2023/04/01 13:19:20;;;;;;;2.28;1.40;;;13.40;75.20;;;;;;5029571;28;20029;-55
2023/04/01 13:22:20;;;;;;;1.38;0.80;;;13.60;99.90;;;;;;5022842;28;20025;-55
2023/04/01 13:24:51;;;;;;;1.23;0.90;;;13.60;1.00;;;;;;5021235;28;20034;-56
2023/04/01 13:27:50;;;;;;;0.90;0.90;;;13.40;99.90;;;;;;5020908;28;20108;-55
2023/04/01 13:30:57;;;;;;;0.90;0.70;;;13.30;1.00;;;;;;5019747;28;20064;-57
2023/04/01 13:33:45;;;;;;;2.13;1.23;;;13.30;1.00;;;;;;5029353;28;20037;-57
2023/04/01 13:36:28;;;;;;;1.27;1.10;;;12.60;1.00;;;;;;5031907;28;20029;-56
2023/04/01 13:39:00;;;;;;;1.58;1.23;;;12.50;1.00;;;;;;5032032;28;20060;-55
2023/04/01 13:41:41;;;;;;;1.35;1.00;;;11.90;1.00;;;;;;5031136;28;20048;-57
2023/04/01 13:44:23;;;;;;;1.02;1.00;;;11.90;99.90;;;;;;5031800;28;20037;-57